createdAt,value
2019-01-31T00:00:46.398Z,10.47
2019-01-31T00:03:55.797Z,9.53
2019-01-31T00:06:39.517Z,9.07
2019-01-31T00:09:46.495Z,11.73
2019-01-31T00:12:53.389Z,11.47
2019-01-31T00:15:34.148Z,12.53
2019-01-31T00:18:31.143Z,13.37
2019-01-31T00:21:28.644Z,11.50
2019-01-31T00:24:53.141Z,12.30
2019-01-31T00:27:57.335Z,10.20
2019-01-31T00:30:58.489Z,10.20
2019-01-31T00:33:46.711Z,14.47
2019-01-31T00:37:17.003Z,11.83
2019-01-31T00:40:29.204Z,9.93
2019-01-31T00:43:37.316Z,14.73
2019-01-31T00:46:33.010Z,12.17
2019-01-31T00:49:30.150Z,10.20
2019-01-31T00:52:57.782Z,13.30
2019-01-31T00:55:43.166Z,9.20
2019-01-31T00:58:46.913Z,16.90
2019-01-31T01:02:03.286Z,11.20
2019-01-31T01:05:15.247Z,9.80
2019-01-31T01:08:29.790Z,14.50
2019-01-31T01:11:26.652Z,11.20
2019-01-31T01:14:27.253Z,11.30
2019-01-31T01:17:21.957Z,11.57
2019-01-31T01:20:30.028Z,10.87
2019-01-31T01:23:43.706Z,10.03
2019-01-31T01:27:04.682Z,12.83
2019-01-31T01:29:47.349Z,10.30
2019-01-31T01:32:47.048Z,9.73
2019-01-31T01:35:34.893Z,11.30
2019-01-31T01:38:53.158Z,9.70
2019-01-31T01:42:09.774Z,9.63
2019-01-31T01:44:57.810Z,10.20
2019-01-31T01:47:56.341Z,11.33
2019-01-31T01:50:42.827Z,11.30
2019-01-31T01:53:52.285Z,12.83
2019-01-31T01:56:56.006Z,11.47
2019-01-31T02:00:08.990Z,14.83
2019-01-31T02:03:10.941Z,10.60
2019-01-31T02:06:22.172Z,11.80
2019-01-31T02:09:29.747Z,11.83
2019-01-31T02:12:08.853Z,10.73
2019-01-31T02:14:59.591Z,11.23
2019-01-31T02:17:50.464Z,11.03
2019-01-31T02:20:52.339Z,12.25
2019-01-31T02:23:49.782Z,10.33
2019-01-31T02:26:56.412Z,11.20
2019-01-31T02:29:40.999Z,13.17
2019-01-31T02:33:14.340Z,11.17
2019-01-31T02:36:31.522Z,11.10
2019-01-31T02:39:43.146Z,12.27
2019-01-31T02:42:38.408Z,14.67
2019-01-31T02:45:46.506Z,13.23
2019-01-31T02:48:29.203Z,13.50
2019-01-31T02:52:00.698Z,13.60
2019-01-31T02:54:56.038Z,16.40
2019-01-31T02:57:58.747Z,14.50
2019-01-31T03:00:55.883Z,15.53
2019-01-31T03:04:01.428Z,13.93
2019-01-31T03:07:19.698Z,13.57
2019-01-31T03:10:25.098Z,14.53
2019-01-31T03:13:28.415Z,14.17
2019-01-31T03:16:47.402Z,15.37
2019-01-31T03:19:42.184Z,14.63
2019-01-31T03:23:04.318Z,12.87
2019-01-31T03:25:59.593Z,12.80
2019-01-31T03:29:22.587Z,12.93
2019-01-31T03:32:29.353Z,10.77
2019-01-31T03:35:26.406Z,11.37
2019-01-31T03:38:47.792Z,10.97
2019-01-31T03:42:10.328Z,9.77
2019-01-31T03:45:19.784Z,15.87
2019-01-31T03:48:18.628Z,10.20
2019-01-31T03:51:56.794Z,14.50
2019-01-31T03:55:11.999Z,9.47
2019-01-31T03:58:21.093Z,8.77
2019-01-31T04:01:25.328Z,15.33
2019-01-31T04:04:25.521Z,10.20
2019-01-31T04:07:00.309Z,10.97
2019-01-31T04:09:35.755Z,8.70
2019-01-31T04:12:10.639Z,10.93
2019-01-31T04:14:43.654Z,11.83
2019-01-31T04:17:17.961Z,11.90
2019-01-31T04:19:52.697Z,10.73
2019-01-31T04:22:26.328Z,10.60
2019-01-31T04:25:00.183Z,10.50
2019-01-31T04:27:33.920Z,11.67
2019-01-31T04:30:10.229Z,10.60
2019-01-31T04:32:43.944Z,8.37
2019-01-31T04:35:16.932Z,10.33
2019-01-31T04:37:51.869Z,10.17
2019-01-31T04:40:31.459Z,9.87
2019-01-31T04:43:03.028Z,10.80
2019-01-31T04:45:36.618Z,17.27
2019-01-31T04:48:09.567Z,16.03
2019-01-31T04:50:43.398Z,11.73
2019-01-31T04:53:17.743Z,11.10
2019-01-31T04:55:51.572Z,11.43
2019-01-31T04:58:26.001Z,13.20
2019-01-31T05:00:59.798Z,12.33
2019-01-31T05:03:32.547Z,10.60
2019-01-31T05:06:07.402Z,10.23
2019-01-31T05:08:40.190Z,10.27
2019-01-31T05:11:14.615Z,10.47
2019-01-31T05:13:48.506Z,10.50
2019-01-31T05:16:23.450Z,11.53
2019-01-31T05:18:58.886Z,10.97
2019-01-31T05:21:31.743Z,10.03
2019-01-31T05:24:05.599Z,10.23
2019-01-31T05:26:39.351Z,9.27
2019-01-31T05:29:13.751Z,9.70
2019-01-31T05:31:46.661Z,11.73
2019-01-31T05:34:20.013Z,10.83
2019-01-31T05:36:53.731Z,17.47
2019-01-31T05:39:27.213Z,17.90
2019-01-31T05:42:01.940Z,17.13
2019-01-31T05:44:36.870Z,35.37
2019-01-31T05:47:09.937Z,44.53
2019-01-31T05:49:42.726Z,39.90
2019-01-31T05:52:15.501Z,25.17
2019-01-31T05:54:48.336Z,21.63
2019-01-31T05:57:21.201Z,14.10
2019-01-31T05:59:54.028Z,12.57
2019-01-31T06:02:29.314Z,12.10
2019-01-31T06:05:04.781Z,11.20
2019-01-31T06:07:39.089Z,11.20
2019-01-31T06:10:15.963Z,9.90
2019-01-31T06:12:48.723Z,14.67
2019-01-31T06:15:25.191Z,39.50
2019-01-31T06:18:00.888Z,59.47
2019-01-31T06:20:35.713Z,49.43
2019-01-31T06:23:11.702Z,36.27
2019-01-31T06:25:46.468Z,19.10
2019-01-31T06:28:21.879Z,15.90
2019-01-31T06:30:56.697Z,13.33
2019-01-31T06:33:32.162Z,10.17
2019-01-31T06:36:06.031Z,8.73
2019-01-31T06:38:39.814Z,14.85
2019-01-31T06:41:18.698Z,10.23
2019-01-31T06:43:51.455Z,11.00
2019-01-31T06:46:26.348Z,17.67
2019-01-31T06:48:59.879Z,33.02
2019-01-31T06:51:35.257Z,32.57
2019-01-31T06:54:10.096Z,42.57
2019-01-31T06:56:44.960Z,32.90
2019-01-31T06:59:19.688Z,25.13
2019-01-31T07:01:54.495Z,15.90
2019-01-31T07:04:29.239Z,22.93
2019-01-31T07:07:04.053Z,13.67
2019-01-31T07:09:38.487Z,11.60
2019-01-31T07:12:14.221Z,13.20
2019-01-31T07:14:48.532Z,11.33
2019-01-31T07:17:24.037Z,10.57
2019-01-31T07:19:57.470Z,10.80
2019-01-31T07:22:32.942Z,11.17
2019-01-31T07:25:07.030Z,11.00
2019-01-31T07:27:41.516Z,10.73
2019-01-31T07:30:15.554Z,12.63
2019-01-31T07:32:48.626Z,12.57
2019-01-31T07:35:21.539Z,12.37
2019-01-31T07:37:55.481Z,11.57
2019-01-31T07:40:30.412Z,10.73
2019-01-31T07:43:04.856Z,10.10
2019-01-31T07:45:39.243Z,11.57
2019-01-31T07:48:12.043Z,10.50
2019-01-31T07:50:46.203Z,10.90
2019-01-31T07:53:21.692Z,12.57
2019-01-31T07:55:56.142Z,13.47
2019-01-31T07:58:29.463Z,16.13
2019-01-31T08:01:02.824Z,13.23
2019-01-31T08:03:35.930Z,13.87
2019-01-31T08:06:10.217Z,15.03
2019-01-31T08:08:44.009Z,14.70
2019-01-31T08:11:16.752Z,12.43
2019-01-31T08:13:50.545Z,10.83
2019-01-31T08:16:26.291Z,10.50
2019-01-31T08:19:01.410Z,9.87
2019-01-31T08:21:36.056Z,12.37
2019-01-31T08:24:11.020Z,15.97
2019-01-31T08:26:44.502Z,14.03
2019-01-31T08:29:18.317Z,19.60
2019-01-31T08:31:51.138Z,19.00
2019-01-31T08:34:25.980Z,18.13
2019-01-31T08:36:59.741Z,17.50
2019-01-31T08:39:34.233Z,15.53
2019-01-31T08:42:09.579Z,16.87
2019-01-31T08:44:44.368Z,15.77
2019-01-31T08:47:18.790Z,14.67
2019-01-31T08:49:52.674Z,14.20
2019-01-31T08:52:25.734Z,16.10
2019-01-31T08:54:59.545Z,15.13
2019-01-31T08:57:33.402Z,14.97
2019-01-31T09:00:09.611Z,15.50
2019-01-31T09:02:43.342Z,17.57
2019-01-31T09:05:17.380Z,15.73
2019-01-31T09:07:50.351Z,14.23
2019-01-31T09:10:27.289Z,14.27
2019-01-31T09:13:01.859Z,12.10
2019-01-31T09:15:34.766Z,11.93
2019-01-31T09:18:07.933Z,11.73
2019-01-31T09:20:54.556Z,12.60
2019-01-31T09:23:55.638Z,10.97
2019-01-31T09:27:18.304Z,12.17
2019-01-31T09:30:19.481Z,12.57
2019-01-31T09:33:12.949Z,16.63
2019-01-31T09:36:14.845Z,14.27
2019-01-31T09:39:33.593Z,15.20
2019-01-31T09:42:38.558Z,14.27
2019-01-31T09:45:39.453Z,13.80
2019-01-31T09:48:47.980Z,14.60
2019-01-31T09:51:59.888Z,14.80
2019-01-31T09:54:46.233Z,23.10
2019-01-31T09:57:57.034Z,15.80
2019-01-31T10:01:20.581Z,18.65
2019-01-31T10:04:23.440Z,19.33
2019-01-31T10:07:46.342Z,19.77
2019-01-31T10:10:56.863Z,21.17
2019-01-31T10:14:31.355Z,18.10
2019-01-31T10:17:44.591Z,19.17
2019-01-31T10:20:42.539Z,19.90
2019-01-31T10:23:44.525Z,18.50
2019-01-31T10:26:51.867Z,15.93
2019-01-31T10:29:47.536Z,17.33
2019-01-31T10:33:01.683Z,17.92
2019-01-31T10:36:05.679Z,15.90
2019-01-31T10:39:32.325Z,16.27
2019-01-31T10:42:31.505Z,15.17
2019-01-31T10:45:38.206Z,18.80
2019-01-31T10:48:39.069Z,19.80
2019-01-31T10:52:06.726Z,20.13
2019-01-31T10:54:55.526Z,20.20
2019-01-31T10:58:09.739Z,19.27
2019-01-31T11:01:33.330Z,17.10
2019-01-31T11:04:24.769Z,22.23
2019-01-31T11:07:27.283Z,25.87
2019-01-31T11:10:35.124Z,25.40
2019-01-31T11:13:52.491Z,21.70
2019-01-31T11:16:39.518Z,23.97
2019-01-31T11:20:16.294Z,24.17
2019-01-31T11:23:43.396Z,23.27
2019-01-31T11:26:45.352Z,27.70
2019-01-31T11:30:13.295Z,29.60
2019-01-31T11:33:12.181Z,33.20
2019-01-31T11:36:29.313Z,58.87
2019-01-31T11:39:56.701Z,33.87
2019-01-31T11:42:53.033Z,23.10
2019-01-31T11:45:53.837Z,27.43
2019-01-31T11:49:00.235Z,27.33
2019-01-31T11:52:08.392Z,24.10
2019-01-31T11:55:06.737Z,25.17
2019-01-31T11:58:14.753Z,24.67
2019-01-31T12:00:48.855Z,31.90
2019-01-31T12:03:24.421Z,23.37
2019-01-31T12:05:57.638Z,26.23
2019-01-31T12:08:34.489Z,22.77
2019-01-31T12:11:07.527Z,27.43
2019-01-31T12:13:40.658Z,26.23
2019-01-31T12:16:13.518Z,30.90
2019-01-31T12:18:46.622Z,28.87
2019-01-31T12:21:19.787Z,29.00
2019-01-31T12:23:54.023Z,27.77
2019-01-31T12:26:27.098Z,25.50
2019-01-31T12:28:59.965Z,25.20
2019-01-31T12:31:33.811Z,24.87
2019-01-31T12:34:07.027Z,24.40
2019-01-31T12:36:40.070Z,30.83
2019-01-31T12:39:13.823Z,27.20
2019-01-31T12:41:46.913Z,26.73
2019-01-31T12:44:19.974Z,22.60
2019-01-31T12:46:53.043Z,21.10
2019-01-31T12:49:30.724Z,22.93
2019-01-31T12:52:04.310Z,21.17
2019-01-31T12:54:37.270Z,22.93
2019-01-31T12:57:11.175Z,24.20
2019-01-31T12:59:44.564Z,39.20
2019-01-31T13:02:17.743Z,29.80
2019-01-31T13:04:51.772Z,28.70
2019-01-31T13:07:24.852Z,23.07
2019-01-31T13:09:58.038Z,22.00
2019-01-31T13:12:31.101Z,20.40
2019-01-31T13:15:04.341Z,23.13
2019-01-31T13:17:37.755Z,19.13
2019-01-31T13:20:14.754Z,25.50
2019-01-31T13:22:47.753Z,21.03
2019-01-31T13:25:20.814Z,29.10
2019-01-31T13:27:54.910Z,21.07
2019-01-31T13:30:28.778Z,22.83
2019-01-31T13:33:03.979Z,26.30
2019-01-31T13:35:37.187Z,26.03
2019-01-31T13:38:11.689Z,25.60
2019-01-31T13:40:44.788Z,22.97
2019-01-31T13:43:18.883Z,23.55
2019-01-31T13:45:51.855Z,25.73
2019-01-31T13:48:24.812Z,21.00
2019-01-31T13:51:01.362Z,23.27
2019-01-31T13:53:35.744Z,28.30
2019-01-31T13:56:10.218Z,27.00
2019-01-31T13:58:44.163Z,27.23
2019-01-31T14:01:17.314Z,29.37
2019-01-31T14:03:50.607Z,15.03
2019-01-31T14:06:23.678Z,24.57
2019-01-31T14:08:57.211Z,20.83
2019-01-31T14:11:32.008Z,28.77
2019-01-31T14:14:09.228Z,29.23
2019-01-31T14:16:47.216Z,18.47
2019-01-31T14:19:15.553Z,17.77
2019-01-31T14:25:13.433Z,18.17
2019-01-31T14:27:46.430Z,30.70
2019-01-31T14:30:36.505Z,27.27
2019-01-31T14:33:21.844Z,16.77
2019-01-31T14:36:00.466Z,18.40
2019-01-31T14:38:33.595Z,19.20
2019-01-31T14:41:06.663Z,17.60
2019-01-31T14:43:39.717Z,18.13
2019-01-31T14:46:14.410Z,17.20
2019-01-31T14:48:47.512Z,32.43
2019-01-31T14:51:20.821Z,24.07
2019-01-31T14:53:54.432Z,18.73
2019-01-31T14:56:27.989Z,19.33
2019-01-31T14:59:01.138Z,19.87
2019-01-31T15:01:37.466Z,19.13
2019-01-31T15:04:16.131Z,19.77
2019-01-31T15:06:58.279Z,17.07
2019-01-31T15:09:31.547Z,12.97
2019-01-31T15:12:04.478Z,14.67
2019-01-31T15:14:38.091Z,14.37
2019-01-31T15:17:11.408Z,23.80
2019-01-31T15:19:44.386Z,23.53
2019-01-31T15:22:17.474Z,15.53
2019-01-31T15:24:52.006Z,18.63
2019-01-31T15:27:30.850Z,19.50
2019-01-31T15:30:04.456Z,22.27
2019-01-31T15:32:38.392Z,21.37
2019-01-31T15:35:12.156Z,16.87
2019-01-31T15:37:45.430Z,22.97
2019-01-31T15:40:29.299Z,17.33
2019-01-31T15:43:03.057Z,22.80
2019-01-31T15:45:41.313Z,14.90
2019-01-31T15:48:15.687Z,17.37
2019-01-31T15:50:54.881Z,14.13
2019-01-31T15:53:27.671Z,14.70
2019-01-31T15:56:00.749Z,19.23
2019-01-31T15:58:33.930Z,17.63
2019-01-31T16:01:08.724Z,15.27
2019-01-31T16:03:41.706Z,17.20
2019-01-31T16:06:14.951Z,15.40
2019-01-31T16:08:50.131Z,14.18
2019-01-31T16:11:23.579Z,20.07
2019-01-31T16:13:57.793Z,21.23
2019-01-31T16:16:31.183Z,14.83
2019-01-31T16:19:05.154Z,16.85
2019-01-31T16:21:38.622Z,13.93
2019-01-31T16:24:11.643Z,17.90
2019-01-31T16:26:45.556Z,14.53
2019-01-31T16:29:18.732Z,15.83
2019-01-31T16:31:51.850Z,12.73
2019-01-31T16:34:25.192Z,17.67
2019-01-31T16:36:59.012Z,17.63
2019-01-31T16:39:32.287Z,21.83
2019-01-31T16:42:07.789Z,16.90
2019-01-31T16:44:42.304Z,46.47
2019-01-31T16:47:15.184Z,17.93
2019-01-31T16:49:50.467Z,10.87
2019-01-31T16:52:24.884Z,13.53
2019-01-31T16:54:57.973Z,10.50
2019-01-31T16:57:33.191Z,14.63
2019-01-31T17:00:07.506Z,23.93
2019-01-31T17:02:42.896Z,12.27
2019-01-31T17:05:19.096Z,9.20
2019-01-31T17:07:54.954Z,10.33
2019-01-31T17:10:29.544Z,9.80
2019-01-31T17:13:12.066Z,14.40
2019-01-31T17:15:46.445Z,13.27
2019-01-31T17:18:21.290Z,14.20
2019-01-31T17:20:55.143Z,10.07
2019-01-31T17:23:28.114Z,12.50
2019-01-31T17:26:03.299Z,15.45
2019-01-31T17:28:35.634Z,12.40
2019-01-31T17:31:13.209Z,12.40
2019-01-31T17:33:50.769Z,11.83
2019-01-31T17:36:23.538Z,14.00
2019-01-31T17:38:56.579Z,14.47
2019-01-31T17:41:31.018Z,13.77
2019-01-31T17:44:04.881Z,11.37
2019-01-31T17:46:37.872Z,17.27
2019-01-31T17:49:12.519Z,12.03
2019-01-31T17:51:45.460Z,18.10
2019-01-31T17:54:18.513Z,13.97
2019-01-31T17:56:51.519Z,18.03
2019-01-31T17:59:24.620Z,13.33
2019-01-31T18:01:57.366Z,13.30
2019-01-31T18:04:30.870Z,8.27
2019-01-31T18:07:03.901Z,12.90
2019-01-31T18:09:37.059Z,13.35
2019-01-31T18:12:09.969Z,11.20
2019-01-31T18:14:45.312Z,10.87
2019-01-31T18:17:23.932Z,13.67
2019-01-31T18:19:59.581Z,12.80
2019-01-31T18:37:32.110Z,17.50
2019-01-31T18:47:34.555Z,13.43
2019-01-31T18:50:08.396Z,8.60
2019-01-31T18:52:43.783Z,8.08
2019-01-31T18:55:17.113Z,11.40
2019-01-31T18:57:56.783Z,8.77
2019-01-31T19:04:08.010Z,8.90
2019-01-31T19:07:02.287Z,9.60
2019-01-31T19:09:39.864Z,9.03
2019-01-31T19:12:13.556Z,9.53
2019-01-31T19:14:50.584Z,7.90
2019-01-31T19:17:24.755Z,14.90
2019-01-31T19:19:57.859Z,8.20
2019-01-31T19:22:31.314Z,7.67
2019-01-31T19:25:11.109Z,8.90
2019-01-31T19:27:45.077Z,12.10
2019-01-31T19:30:28.954Z,14.10
2019-01-31T19:33:13.077Z,12.47
2019-01-31T19:35:43.393Z,9.50
2019-01-31T19:38:19.791Z,9.30
2019-01-31T19:40:54.747Z,9.23
2019-01-31T19:43:28.186Z,8.00
2019-01-31T19:46:25.304Z,10.47
2019-01-31T19:49:04.664Z,10.57
2019-01-31T19:51:40.139Z,7.53
2019-01-31T19:54:35.548Z,7.83
2019-01-31T19:57:09.073Z,8.63
2019-01-31T19:59:42.478Z,10.20
2019-01-31T20:02:15.999Z,10.27
2019-01-31T20:04:48.984Z,8.70
2019-01-31T20:07:26.976Z,8.73
2019-01-31T20:10:00.338Z,10.63
2019-01-31T20:12:34.600Z,9.03
2019-01-31T20:15:09.359Z,10.70
2019-01-31T20:17:42.452Z,10.63
2019-01-31T20:20:18.825Z,9.43
2019-01-31T20:22:52.501Z,9.63
2019-01-31T20:25:26.280Z,10.73
2019-01-31T20:28:01.621Z,11.93
2019-01-31T20:30:35.650Z,11.33
2019-01-31T20:33:10.707Z,12.40
2019-01-31T20:35:44.821Z,9.43
2019-01-31T20:38:18.765Z,12.57
2019-01-31T20:40:51.793Z,10.85
2019-01-31T20:43:24.833Z,24.02
2019-01-31T20:45:58.782Z,8.50
2019-01-31T20:48:31.670Z,7.08
2019-01-31T20:51:04.405Z,9.77
2019-01-31T20:53:37.629Z,13.78
2019-01-31T20:56:10.767Z,9.58
2019-01-31T20:58:44.808Z,8.50
2019-01-31T21:01:18.021Z,10.28
2019-01-31T21:03:51.032Z,9.15
2019-01-31T21:06:24.503Z,9.25
2019-01-31T21:08:57.235Z,9.87
2019-01-31T21:11:30.028Z,15.65
2019-01-31T21:14:06.173Z,12.75
2019-01-31T21:16:37.799Z,10.78
2019-01-31T21:19:11.607Z,9.90
2019-01-31T21:21:45.001Z,10.15
2019-01-31T21:24:18.964Z,10.18
2019-01-31T21:26:53.085Z,11.47
2019-01-31T21:29:26.139Z,8.75
2019-01-31T21:31:58.942Z,15.27
2019-01-31T21:34:31.718Z,12.73
2019-01-31T21:37:04.887Z,13.67
2019-01-31T21:39:37.825Z,10.80
2019-01-31T21:42:10.814Z,12.63
2019-01-31T21:44:44.454Z,12.60
2019-01-31T21:47:19.405Z,11.90
2019-01-31T21:49:53.301Z,12.50
2019-01-31T21:52:26.154Z,12.83
2019-01-31T21:54:59.043Z,11.30
2019-01-31T21:57:31.809Z,16.07
2019-01-31T22:00:04.890Z,11.20
2019-01-31T22:02:39.867Z,12.00
2019-01-31T22:05:13.765Z,15.40
2019-01-31T22:07:46.918Z,10.67
2019-01-31T22:10:22.363Z,17.80
2019-01-31T22:12:55.166Z,20.97
2019-01-31T22:15:32.147Z,21.20
2019-01-31T22:18:08.504Z,21.40
2019-01-31T22:20:42.679Z,22.13
2019-01-31T22:23:17.004Z,23.23
2019-01-31T22:25:50.033Z,23.13
2019-01-31T22:28:23.929Z,23.27
2019-01-31T22:30:58.310Z,22.20
2019-01-31T22:33:31.041Z,23.10
2019-01-31T22:36:05.927Z,23.97
2019-01-31T22:38:38.673Z,21.97
2019-01-31T22:41:12.993Z,21.87
2019-01-31T22:43:46.848Z,22.83
2019-01-31T22:46:21.619Z,22.83
2019-01-31T22:48:56.440Z,22.40
2019-01-31T22:51:29.416Z,22.03
2019-01-31T22:54:03.542Z,21.53
2019-01-31T22:56:36.654Z,23.17
2019-01-31T22:59:10.718Z,23.30
2019-01-31T23:01:56.553Z,23.50
2019-01-31T23:04:31.365Z,22.27
2019-01-31T23:07:06.072Z,23.60
2019-01-31T23:09:39.951Z,24.60
2019-01-31T23:12:14.983Z,23.50
2019-01-31T23:14:51.576Z,23.57
2019-01-31T23:17:36.734Z,25.07
2019-01-31T23:20:01.771Z,24.50
2019-01-31T23:22:34.934Z,25.87
2019-01-31T23:25:10.350Z,25.57
2019-01-31T23:27:45.391Z,26.00
2019-01-31T23:30:19.368Z,26.67
2019-01-31T23:32:52.457Z,28.03
2019-01-31T23:35:25.818Z,28.13
2019-01-31T23:37:58.854Z,26.97
2019-01-31T23:40:31.582Z,27.30
2019-01-31T23:43:04.400Z,26.07
2019-01-31T23:45:37.481Z,29.57
2019-01-31T23:48:10.569Z,28.10
2019-01-31T23:50:44.322Z,29.83
2019-01-31T23:53:18.061Z,28.97
2019-01-31T23:55:50.946Z,29.10
2019-01-31T23:58:23.711Z,29.60
